createdAt,value
2024-04-08T00:01:03.538Z,97926.94
2024-04-08T00:03:30.703Z,97930.69
2024-04-08T00:05:57.749Z,97928.00
2024-04-08T00:08:25.167Z,97933.63
2024-04-08T00:10:52.065Z,97920.34
2024-04-08T00:13:18.919Z,97923.50
2024-04-08T00:15:46.075Z,97930.28
2024-04-08T00:18:14.158Z,97932.06
2024-04-08T00:20:41.073Z,97921.47
2024-04-08T00:23:08.131Z,97930.84
2024-04-08T00:25:35.409Z,97933.75
2024-04-08T00:28:02.236Z,97929.22
2024-04-08T00:30:29.104Z,97924.53
2024-04-08T00:32:55.975Z,97931.06
2024-04-08T00:35:22.869Z,97927.94
2024-04-08T00:37:50.156Z,97922.50
2024-04-08T00:40:17.279Z,97925.66
2024-04-08T00:42:46.471Z,97929.97
2024-04-08T00:45:13.558Z,97916.44
2024-04-08T00:47:40.497Z,97937.13
2024-04-08T00:50:07.795Z,97932.47
2024-04-08T00:52:35.091Z,97933.44
2024-04-08T00:55:02.299Z,97930.75
2024-04-08T00:57:30.835Z,97928.28
2024-04-08T00:59:58.807Z,97924.44
2024-04-08T01:02:25.822Z,97933.09
2024-04-08T01:04:52.726Z,97932.63
2024-04-08T01:07:19.580Z,97927.44
2024-04-08T01:09:46.420Z,97934.66
2024-04-08T01:12:13.310Z,97928.94
2024-04-08T01:14:41.122Z,97922.75
2024-04-08T01:17:08.437Z,97915.88
2024-04-08T01:19:35.296Z,97934.31
2024-04-08T01:22:02.282Z,97923.00
2024-04-08T01:24:29.423Z,97926.25
2024-04-08T01:26:56.259Z,97926.59
2024-04-08T01:29:23.247Z,97926.25
2024-04-08T01:31:50.158Z,97927.09
2024-04-08T01:34:17.024Z,97927.78
2024-04-08T01:36:45.296Z,97935.63
2024-04-08T01:39:12.326Z,97937.97
2024-04-08T01:41:39.264Z,97926.88
2024-04-08T01:44:06.512Z,97915.91
2024-04-08T01:46:33.542Z,97930.41
2024-04-08T01:49:00.805Z,97920.00
2024-04-08T01:51:32.009Z,97936.47
2024-04-08T01:54:00.737Z,97927.22
2024-04-08T01:56:30.339Z,97929.34
2024-04-08T01:58:57.252Z,97924.09
2024-04-08T02:01:24.512Z,97921.66
2024-04-08T02:03:51.536Z,97925.16
2024-04-08T02:06:20.686Z,97925.38
2024-04-08T02:08:47.608Z,97926.53
2024-04-08T02:11:14.918Z,97933.56
2024-04-08T02:13:42.995Z,97941.28
2024-04-08T02:16:10.242Z,97932.50
2024-04-08T02:18:37.594Z,97940.06
2024-04-08T02:21:04.692Z,97936.47
2024-04-08T02:23:31.545Z,97936.47
2024-04-08T02:25:59.495Z,97928.31
2024-04-08T02:28:26.508Z,97925.28
2024-04-08T02:30:53.700Z,97933.09
2024-04-08T02:33:20.627Z,97918.97
2024-04-08T02:35:47.617Z,97922.47
2024-04-08T02:38:14.602Z,97911.38
2024-04-08T02:40:41.604Z,97916.03
2024-04-08T02:43:11.725Z,97928.78
2024-04-08T02:45:41.692Z,97917.91
2024-04-08T02:48:09.313Z,97923.06
2024-04-08T02:50:36.322Z,97925.63
2024-04-08T02:53:03.255Z,97923.16
2024-04-08T02:55:30.107Z,97926.56
2024-04-08T02:57:57.099Z,97931.47
2024-04-08T03:00:25.361Z,97940.44
2024-04-08T03:02:52.268Z,97935.06
2024-04-08T03:05:19.851Z,97924.44
2024-04-08T03:07:46.809Z,97921.41
2024-04-08T03:10:13.714Z,97927.59
2024-04-08T03:12:40.670Z,97935.88
2024-04-08T03:15:07.577Z,97926.44
2024-04-08T03:17:34.713Z,97935.63
2024-04-08T03:20:01.587Z,97941.25
2024-04-08T03:22:29.196Z,97944.75
2024-04-08T03:24:56.875Z,97939.03
2024-04-08T03:27:23.907Z,97947.22
2024-04-08T03:29:54.075Z,97939.50
2024-04-08T03:32:20.974Z,97949.66
2024-04-08T03:34:47.838Z,97949.28
2024-04-08T03:37:14.867Z,97952.78
2024-04-08T03:39:41.770Z,97955.94
2024-04-08T03:42:09.406Z,97942.25
2024-04-08T03:44:36.607Z,97957.69
2024-04-08T03:47:03.690Z,97958.72
2024-04-08T03:49:30.548Z,97955.81
2024-04-08T03:51:57.504Z,97957.44
2024-04-08T03:54:24.467Z,97950.44
2024-04-08T03:56:51.514Z,97945.53
2024-04-08T03:59:19.372Z,97963.97
2024-04-08T04:01:46.216Z,97969.34
2024-04-08T04:04:13.088Z,97954.16
2024-04-08T04:06:40.213Z,97964.31
2024-04-08T04:09:07.282Z,97955.09
2024-04-08T04:11:34.433Z,97967.81
2024-04-08T04:14:01.377Z,97960.81
2024-04-08T04:16:28.556Z,97966.75
2024-04-08T04:18:55.771Z,97968.63
2024-04-08T04:21:23.023Z,97970.84
2024-04-08T04:23:50.257Z,97968.16
2024-04-08T04:26:17.124Z,97967.56
2024-04-08T04:28:44.052Z,97958.25
2024-04-08T04:31:10.917Z,97983.56
2024-04-08T04:33:37.909Z,97980.53
2024-04-08T04:36:05.158Z,97978.91
2024-04-08T04:38:32.001Z,97973.09
2024-04-08T04:41:06.286Z,97974.72
2024-04-08T04:43:33.922Z,97971.81
2024-04-08T04:46:01.048Z,97976.47
2024-04-08T04:48:28.334Z,97978.22
2024-04-08T04:50:55.607Z,97966.31
2024-04-08T04:53:22.751Z,97976.50
2024-04-08T04:55:56.000Z,97978.00
2024-04-08T04:58:23.639Z,97971.94
2024-04-08T05:00:51.520Z,97966.81
2024-04-08T05:03:20.369Z,97972.09
2024-04-08T05:05:56.945Z,97974.63
2024-04-08T05:08:24.947Z,97971.84
2024-04-08T05:10:52.301Z,97976.97
2024-04-08T05:13:19.991Z,97984.44
2024-04-08T05:16:00.735Z,97980.13
2024-04-08T05:18:29.366Z,97972.22
2024-04-08T05:21:03.705Z,97968.34
2024-04-08T05:23:32.208Z,97975.22
2024-04-08T05:25:59.711Z,97980.22
2024-04-08T05:28:26.762Z,97980.81
2024-04-08T05:30:53.694Z,97988.59
2024-04-08T05:33:21.806Z,97983.09
2024-04-08T05:35:48.912Z,97982.38
2024-04-08T05:38:18.899Z,97979.56
2024-04-08T05:40:45.863Z,97984.00
2024-04-08T05:43:17.204Z,97987.69
2024-04-08T05:45:44.626Z,97978.09
2024-04-08T05:48:11.642Z,97971.50
2024-04-08T05:50:38.761Z,97973.72
2024-04-08T05:53:05.752Z,97981.25
2024-04-08T05:55:33.026Z,97975.13
2024-04-08T05:58:01.001Z,97979.66
2024-04-08T06:00:28.353Z,97980.63
2024-04-08T06:02:56.329Z,97972.06
2024-04-08T06:05:26.127Z,97979.34
2024-04-08T06:07:54.494Z,97987.00
2024-04-08T06:10:23.094Z,97986.19
2024-04-08T06:12:50.766Z,97983.88
2024-04-08T06:15:17.966Z,97983.56
2024-04-08T06:17:45.211Z,97993.97
2024-04-08T06:20:12.440Z,97992.50
2024-04-08T06:22:39.341Z,97997.00
2024-04-08T06:25:07.875Z,97992.91
2024-04-08T06:27:35.149Z,97997.63
2024-04-08T06:30:02.919Z,97994.78
2024-04-08T06:32:30.260Z,97992.25
2024-04-08T06:34:57.096Z,97990.53
2024-04-08T06:37:24.023Z,98004.25
2024-04-08T06:39:51.174Z,97993.28
2024-04-08T06:42:19.387Z,97999.97
2024-04-08T06:44:52.900Z,97998.22
2024-04-08T06:47:23.022Z,98005.97
2024-04-08T06:49:50.151Z,97993.59
2024-04-08T06:52:17.069Z,97996.13
2024-04-08T06:54:45.115Z,97997.63
2024-04-08T06:57:12.000Z,97983.63
2024-04-08T06:59:39.590Z,97994.56
2024-04-08T07:02:07.004Z,97997.34
2024-04-08T07:04:34.067Z,97990.81
2024-04-08T07:07:01.478Z,97995.13
2024-04-08T07:09:30.967Z,97990.66
2024-04-08T07:12:02.511Z,98000.78
2024-04-08T07:14:29.623Z,97994.53
2024-04-08T07:16:56.595Z,97979.84
2024-04-08T07:19:23.623Z,97990.19
2024-04-08T07:21:53.387Z,97993.81
2024-04-08T07:24:21.815Z,97985.69
2024-04-08T07:26:48.801Z,97983.75
2024-04-08T07:29:16.463Z,97995.41
2024-04-08T07:31:43.382Z,97992.84
2024-04-08T07:34:10.785Z,97970.22
2024-04-08T07:36:37.723Z,97993.78
2024-04-08T07:39:04.665Z,97991.13
2024-04-08T07:41:31.676Z,97988.91
2024-04-08T07:43:58.597Z,97989.47
2024-04-08T07:46:25.511Z,97979.56
2024-04-08T07:48:52.463Z,97981.81
2024-04-08T07:51:19.844Z,97984.66
2024-04-08T07:53:46.871Z,97983.78
2024-04-08T07:56:13.962Z,97975.09
2024-04-08T07:58:42.092Z,97985.31
2024-04-08T08:01:09.208Z,97978.72
2024-04-08T08:03:36.692Z,97968.22
2024-04-08T08:06:07.104Z,97974.69
2024-04-08T08:08:36.068Z,97971.06
2024-04-08T08:11:06.053Z,97973.44
2024-04-08T08:13:34.276Z,97971.28
2024-04-08T08:16:01.970Z,97965.41
2024-04-08T08:18:30.591Z,97954.56
2024-04-08T08:20:59.662Z,97962.09
2024-04-08T08:23:26.684Z,97956.50
2024-04-08T08:25:54.567Z,97954.19
2024-04-08T08:28:22.685Z,97950.06
2024-04-08T08:30:50.180Z,97951.44
2024-04-08T08:33:17.194Z,97941.97
2024-04-08T08:35:44.178Z,97941.28
2024-04-08T08:38:11.456Z,97941.94
2024-04-08T08:40:44.428Z,97950.53
2024-04-08T08:43:12.643Z,97936.41
2024-04-08T08:45:43.312Z,97939.38
2024-04-08T08:48:10.349Z,97930.06
2024-04-08T08:50:38.587Z,97933.63
2024-04-08T08:53:06.226Z,97929.25
2024-04-08T08:55:34.297Z,97922.63
2024-04-08T08:58:05.888Z,97916.38
2024-04-08T09:00:33.300Z,97932.16
2024-04-08T09:03:01.797Z,97931.47
2024-04-08T09:05:28.718Z,97930.41
2024-04-08T09:07:55.643Z,97925.94
2024-04-08T09:10:24.604Z,97916.84
2024-04-08T09:12:53.354Z,97920.38
2024-04-08T09:15:20.242Z,97905.63
2024-04-08T09:17:47.415Z,97903.47
2024-04-08T09:20:15.139Z,97898.94
2024-04-08T09:22:42.333Z,97901.91
2024-04-08T09:25:13.981Z,97893.34
2024-04-08T09:27:41.101Z,97894.94
2024-04-08T09:30:08.725Z,97892.38
2024-04-08T09:32:36.797Z,97885.25
2024-04-08T09:35:08.332Z,97885.88
2024-04-08T09:37:35.378Z,97886.22
2024-04-08T09:40:04.992Z,97885.44
2024-04-08T09:42:34.919Z,97883.97
2024-04-08T09:45:04.203Z,97876.72
2024-04-08T09:47:32.239Z,97867.06
2024-04-08T09:50:00.972Z,97865.34
2024-04-08T09:52:29.171Z,97869.94
2024-04-08T09:54:57.804Z,97858.31
2024-04-08T09:57:28.960Z,97857.22
2024-04-08T09:59:58.247Z,97853.50
2024-04-08T10:02:38.109Z,97847.50
2024-04-08T10:05:06.516Z,97847.13
2024-04-08T10:07:34.355Z,97843.88
2024-04-08T10:10:11.069Z,97837.41
2024-04-08T10:12:38.507Z,97837.16
2024-04-08T10:15:16.467Z,97823.72
2024-04-08T10:17:43.927Z,97832.34
2024-04-08T10:20:20.602Z,97832.94
2024-04-08T10:22:48.285Z,97827.09
2024-04-08T10:25:38.144Z,97828.03
2024-04-08T10:28:07.484Z,97823.66
2024-04-08T10:30:45.399Z,97825.19
2024-04-08T10:33:12.975Z,97824.72
2024-04-08T10:35:40.421Z,97814.03
2024-04-08T10:38:08.568Z,97817.06
2024-04-08T10:40:35.814Z,97816.53
2024-04-08T10:43:03.132Z,97805.31
2024-04-08T10:45:30.195Z,97805.91
2024-04-08T10:48:04.049Z,97793.94
2024-04-08T10:50:35.256Z,97800.88
2024-04-08T10:53:04.001Z,97802.47
2024-04-08T10:55:31.192Z,97790.94
2024-04-08T10:57:58.252Z,97794.31
2024-04-08T11:00:26.108Z,97792.22
2024-04-08T11:02:53.256Z,97785.34
2024-04-08T11:05:23.057Z,97781.56
2024-04-08T11:07:50.236Z,97781.56
2024-04-08T11:10:18.723Z,97783.38
2024-04-08T11:12:46.551Z,97772.50
2024-04-08T11:15:15.486Z,97763.13
2024-04-08T11:17:43.158Z,97774.56
2024-04-08T11:20:14.352Z,97762.81
2024-04-08T11:22:41.571Z,97761.97
2024-04-08T11:25:16.911Z,97755.06
2024-04-08T11:27:45.380Z,97747.34
2024-04-08T11:30:15.695Z,97753.63
2024-04-08T11:32:43.252Z,97751.75
2024-04-08T11:35:10.876Z,97751.31
2024-04-08T11:37:38.052Z,97741.09
2024-04-08T11:40:08.617Z,97741.63
2024-04-08T11:42:35.746Z,97743.28
2024-04-08T11:45:08.577Z,97746.53
2024-04-08T11:47:37.083Z,97737.84
2024-04-08T11:50:05.329Z,97733.97
2024-04-08T11:52:32.717Z,97732.84
2024-04-08T11:55:01.763Z,97730.13
2024-04-08T11:57:30.794Z,97718.13
2024-04-08T11:59:57.938Z,97729.81
2024-04-08T12:02:25.184Z,97717.59
2024-04-08T12:04:53.995Z,97711.09
2024-04-08T12:07:21.279Z,97707.97
2024-04-08T12:09:48.270Z,97714.38
2024-04-08T12:12:15.387Z,97708.97
2024-04-08T12:14:43.241Z,97704.28
2024-04-08T12:17:10.805Z,97710.69
2024-04-08T12:19:38.118Z,97704.91
2024-04-08T12:22:05.220Z,97696.31
2024-04-08T12:24:32.085Z,97694.50
2024-04-08T12:26:58.995Z,97696.41
2024-04-08T12:29:25.932Z,97683.59
2024-04-08T12:31:53.819Z,97696.84
2024-04-08T12:34:20.738Z,97694.63
2024-04-08T12:36:47.657Z,97696.47
2024-04-08T12:39:14.911Z,97683.91
2024-04-08T12:41:41.814Z,97677.72
2024-04-08T12:44:10.570Z,97688.53
2024-04-08T12:46:37.692Z,97681.41
2024-04-08T12:49:04.794Z,97673.94
2024-04-08T12:51:32.034Z,97670.50
2024-04-08T12:53:59.246Z,97675.00
2024-04-08T12:56:26.282Z,97667.84
2024-04-08T12:58:57.792Z,97672.16
2024-04-08T13:01:26.353Z,97659.50
2024-04-08T13:03:54.443Z,97657.91
2024-04-08T13:06:21.885Z,97654.13
2024-04-08T13:08:49.300Z,97651.03
2024-04-08T13:11:17.017Z,97651.06
2024-04-08T13:13:47.018Z,97637.28
2024-04-08T13:16:16.074Z,97642.47
2024-04-08T13:18:44.396Z,97637.28
2024-04-08T13:21:12.425Z,97629.59
2024-04-08T13:23:40.494Z,97633.97
2024-04-08T13:26:11.127Z,97633.09
2024-04-08T13:28:38.108Z,97628.75
2024-04-08T13:31:05.413Z,97630.38
2024-04-08T13:33:32.617Z,97627.56
2024-04-08T13:36:00.680Z,97631.09
2024-04-08T13:38:28.690Z,97620.69
2024-04-08T13:40:55.575Z,97615.16
2024-04-08T13:43:22.499Z,97612.34
2024-04-08T13:45:49.649Z,97614.66
2024-04-08T13:48:16.667Z,97611.03
2024-04-08T13:50:43.965Z,97613.63
2024-04-08T13:53:11.072Z,97614.19
2024-04-08T13:55:39.644Z,97607.91
2024-04-08T13:58:07.244Z,97604.06
2024-04-08T14:00:34.950Z,97609.66
2024-04-08T14:03:02.070Z,97595.38
2024-04-08T14:05:29.050Z,97590.16
2024-04-08T14:07:55.919Z,97594.19
2024-04-08T14:10:22.773Z,97600.47
2024-04-08T14:12:49.658Z,97584.56
2024-04-08T14:15:17.628Z,97586.22
2024-04-08T14:17:44.858Z,97587.00
2024-04-08T14:20:11.956Z,97585.34
2024-04-08T14:22:39.611Z,97583.69
2024-04-08T14:25:07.139Z,97580.53
2024-04-08T14:27:34.807Z,97581.25
2024-04-08T14:30:02.101Z,97578.88
2024-04-08T14:32:29.211Z,97574.88
2024-04-08T14:34:56.802Z,97573.56
2024-04-08T14:37:42.563Z,97573.88
2024-04-08T14:40:11.356Z,97562.31
2024-04-08T14:42:38.913Z,97561.91
2024-04-08T14:45:06.390Z,97568.56
2024-04-08T14:47:33.659Z,97572.78
2024-04-08T14:50:00.839Z,97561.53
2024-04-08T14:52:33.543Z,97564.66
2024-04-08T14:55:07.423Z,97555.00
2024-04-08T14:57:35.077Z,97563.94
2024-04-08T15:00:02.254Z,97564.50
2024-04-08T15:02:29.352Z,97551.38
2024-04-08T15:04:56.355Z,97554.34
2024-04-08T15:07:28.049Z,97554.59
2024-04-08T15:09:56.554Z,97553.25
2024-04-08T15:12:23.954Z,97550.06
2024-04-08T15:14:50.995Z,97550.66
2024-04-08T15:17:20.887Z,97556.53
2024-04-08T15:19:49.497Z,97564.19
2024-04-08T15:22:16.483Z,97552.03
2024-04-08T15:24:45.002Z,97551.94
2024-04-08T15:27:14.183Z,97549.44
2024-04-08T15:29:43.909Z,97550.19
2024-04-08T15:32:13.260Z,97544.75
2024-04-08T15:34:42.320Z,97553.34
2024-04-08T15:37:10.884Z,97559.84
2024-04-08T15:39:38.216Z,97551.56
2024-04-08T15:42:05.539Z,97546.56
2024-04-08T15:44:32.571Z,97554.19
2024-04-08T15:46:59.643Z,97543.16
2024-04-08T15:49:26.779Z,97546.06
2024-04-08T15:51:57.477Z,97545.56
2024-04-08T15:54:25.515Z,97544.00
2024-04-08T15:56:56.111Z,97539.47
2024-04-08T15:59:23.069Z,97539.41
2024-04-08T16:01:50.140Z,97541.16
2024-04-08T16:04:17.345Z,97540.28
2024-04-08T16:06:46.000Z,97537.56
2024-04-08T16:09:14.125Z,97532.44
2024-04-08T16:11:41.328Z,97521.94
2024-04-08T16:14:08.359Z,97524.91
2024-04-08T16:16:36.020Z,97532.34
2024-04-08T16:19:02.900Z,97534.66
2024-04-08T16:21:29.919Z,97531.91
2024-04-08T16:23:57.501Z,97529.84
2024-04-08T16:26:25.770Z,97530.66
2024-04-08T16:28:59.840Z,97530.81
2024-04-08T16:31:33.437Z,97519.06
2024-04-08T16:34:01.623Z,97526.63
2024-04-08T16:36:30.612Z,97526.91
2024-04-08T16:38:58.961Z,97525.09
2024-04-08T16:41:26.319Z,97535.13
2024-04-08T16:43:53.375Z,97536.00
2024-04-08T16:46:24.227Z,97531.31
2024-04-08T16:48:51.858Z,97529.16
2024-04-08T16:51:20.451Z,97535.69
2024-04-08T16:53:47.542Z,97524.00
2024-04-08T16:56:14.459Z,97544.84
2024-04-08T16:58:41.342Z,97534.94
2024-04-08T17:01:08.302Z,97533.69
2024-04-08T17:03:35.998Z,97527.28
2024-04-08T17:06:04.742Z,97525.06
2024-04-08T17:08:32.744Z,97535.38
2024-04-08T17:11:02.505Z,97525.84
2024-04-08T17:13:31.120Z,97541.59
2024-04-08T17:15:58.494Z,97526.94
2024-04-08T17:18:26.114Z,97529.59
2024-04-08T17:20:57.315Z,97534.72
2024-04-08T17:23:25.458Z,97537.69
2024-04-08T17:25:54.060Z,97538.63
2024-04-08T17:28:21.075Z,97542.78
2024-04-08T17:30:58.648Z,97544.59
2024-04-08T17:33:27.593Z,97551.31
2024-04-08T17:36:02.806Z,97549.97
2024-04-08T17:38:30.280Z,97552.47
2024-04-08T17:41:01.439Z,97548.66
2024-04-08T17:43:32.790Z,97550.22
2024-04-08T17:46:04.135Z,97545.69
2024-04-08T17:48:36.472Z,97547.56
2024-04-08T17:51:05.442Z,97547.59
2024-04-08T17:53:34.126Z,97556.84
2024-04-08T17:56:02.830Z,97548.47
2024-04-08T17:58:31.376Z,97551.41
2024-04-08T18:01:05.296Z,97544.25
2024-04-08T18:03:32.769Z,97522.06
2024-04-08T18:06:24.169Z,97550.91
2024-04-08T18:08:52.558Z,97544.53
2024-04-08T18:11:22.244Z,97535.59
2024-04-08T18:13:49.523Z,97534.13
2024-04-08T18:16:21.882Z,97543.97
2024-04-08T18:18:51.079Z,97545.28
2024-04-08T18:21:19.750Z,97548.69
2024-04-08T18:23:47.650Z,97545.06
2024-04-08T18:26:20.245Z,97537.44
2024-04-08T18:28:56.768Z,97538.81
2024-04-08T18:31:23.747Z,97534.97
2024-04-08T18:33:54.772Z,97533.38
2024-04-08T18:36:21.953Z,97535.34
2024-04-08T18:38:51.188Z,97537.94
2024-04-08T18:41:19.783Z,97537.50
2024-04-08T18:43:47.039Z,97530.00
2024-04-08T18:46:24.424Z,97534.78
2024-04-08T18:48:52.166Z,97542.94
2024-04-08T18:51:19.276Z,97540.84
2024-04-08T18:53:46.939Z,97539.88
2024-04-08T18:56:14.191Z,97543.75
2024-04-08T18:58:41.112Z,97536.78
2024-04-08T19:01:16.557Z,97539.28
2024-04-08T19:03:47.668Z,97533.41
2024-04-08T19:06:14.998Z,97519.63
2024-04-08T19:08:41.838Z,97520.75
2024-04-08T19:11:08.821Z,97516.47
2024-04-08T19:13:35.860Z,97521.66
2024-04-08T19:16:06.332Z,97519.81
2024-04-08T19:18:35.113Z,97511.78
2024-04-08T19:21:09.360Z,97519.38
2024-04-08T19:23:36.537Z,97518.41
2024-04-08T19:26:04.755Z,97516.25
2024-04-08T19:28:32.325Z,97522.25
2024-04-08T19:31:00.359Z,97524.00
2024-04-08T19:33:27.463Z,97519.72
2024-04-08T19:35:57.945Z,97513.59
2024-04-08T19:38:28.936Z,97514.97
2024-04-08T19:41:03.606Z,97508.50
2024-04-08T19:43:30.500Z,97510.16
2024-04-08T19:46:06.352Z,97509.66
2024-04-08T19:48:42.442Z,97519.44
2024-04-08T19:51:16.651Z,97501.13
2024-04-08T19:53:46.882Z,97514.94
2024-04-08T19:56:19.752Z,97518.22
2024-04-08T19:58:47.605Z,97525.81
2024-04-08T20:01:14.624Z,97515.88
2024-04-08T20:03:42.245Z,97524.84
2024-04-08T20:06:09.719Z,97523.06
2024-04-08T20:08:37.520Z,97532.00
2024-04-08T20:11:06.659Z,97532.88
2024-04-08T20:13:34.681Z,97522.91
2024-04-08T20:16:22.561Z,97529.66
2024-04-08T20:18:51.066Z,97518.38
2024-04-08T20:21:21.026Z,97536.25
2024-04-08T20:23:48.039Z,97532.22
2024-04-08T20:26:15.020Z,97531.97
2024-04-08T20:28:42.353Z,97536.84
2024-04-08T20:31:10.054Z,97515.00
2024-04-08T20:33:38.601Z,97532.88
2024-04-08T20:36:08.068Z,97527.75
2024-04-08T20:38:36.410Z,97520.47
2024-04-08T20:41:05.691Z,97522.38
2024-04-08T20:43:33.761Z,97531.59
2024-04-08T20:46:00.818Z,97525.63
2024-04-08T20:48:28.034Z,97526.47
2024-04-08T20:50:59.866Z,97516.53
2024-04-08T20:53:28.082Z,97503.50
2024-04-08T20:55:59.679Z,97500.84
2024-04-08T20:58:27.973Z,97514.88
2024-04-08T21:00:57.281Z,97498.72
2024-04-08T21:03:24.751Z,97511.69
2024-04-08T21:06:05.206Z,97522.25
2024-04-08T21:08:32.531Z,97503.63
2024-04-08T21:11:01.011Z,97512.81
2024-04-08T21:13:28.461Z,97515.00
2024-04-08T21:15:59.609Z,97517.47
2024-04-08T21:18:27.406Z,97506.91
2024-04-08T21:21:05.032Z,97520.69
2024-04-08T21:23:33.259Z,97519.38
2024-04-08T21:26:14.800Z,97523.44
2024-04-08T21:28:43.595Z,97509.38
2024-04-08T21:31:11.480Z,97518.28
2024-04-08T21:33:40.339Z,97512.34
2024-04-08T21:36:08.556Z,97517.50
2024-04-08T21:38:36.086Z,97519.41
2024-04-08T21:41:11.166Z,97506.97
2024-04-08T21:43:39.191Z,97508.59
2024-04-08T21:46:07.631Z,97505.91
2024-04-08T21:48:35.194Z,97502.66
2024-04-08T21:51:05.761Z,97515.91
2024-04-08T21:53:32.839Z,97497.81
2024-04-08T21:56:05.319Z,97513.75
2024-04-08T21:58:35.743Z,97511.88
2024-04-08T22:01:07.155Z,97513.50
2024-04-08T22:03:34.452Z,97514.28
2024-04-08T22:06:02.501Z,97514.00
2024-04-08T22:08:29.872Z,97511.84
2024-04-08T22:10:57.738Z,97516.72
2024-04-08T22:13:25.606Z,97512.66
2024-04-08T22:15:53.188Z,97512.66
2024-04-08T22:18:24.332Z,97514.81
2024-04-08T22:20:52.584Z,97510.47
2024-04-08T22:23:20.248Z,97517.75
2024-04-08T22:25:47.598Z,97512.06
2024-04-08T22:28:14.513Z,97503.72
2024-04-08T22:30:42.357Z,97511.81
2024-04-08T22:33:09.612Z,97510.16
2024-04-08T22:35:37.195Z,97507.47
2024-04-08T22:38:04.588Z,97499.34
2024-04-08T22:40:31.607Z,97508.25
2024-04-08T22:42:58.480Z,97498.25
2024-04-08T22:45:26.419Z,97506.31
2024-04-08T22:47:53.652Z,97514.16
2024-04-08T22:50:22.007Z,97518.44
2024-04-08T22:52:49.858Z,97499.53
2024-04-08T22:55:16.914Z,97505.22
2024-04-08T22:57:44.709Z,97506.00
2024-04-08T23:00:13.999Z,97506.25
2024-04-08T23:02:41.617Z,97508.16
2024-04-08T23:05:09.569Z,97511.91
2024-04-08T23:07:37.159Z,97493.81
2024-04-08T23:10:05.200Z,97508.38
2024-04-08T23:12:32.644Z,97502.16
2024-04-08T23:14:59.760Z,97507.56
2024-04-08T23:17:26.792Z,97504.28
2024-04-08T23:19:53.724Z,97504.28
2024-04-08T23:22:20.694Z,97502.91
2024-04-08T23:24:47.912Z,97499.63
2024-04-08T23:27:15.185Z,97491.81
2024-04-08T23:29:42.227Z,97486.59
2024-04-08T23:32:10.414Z,97489.06
2024-04-08T23:34:37.850Z,97488.25
2024-04-08T23:37:05.856Z,97486.88
2024-04-08T23:39:32.888Z,97486.34
2024-04-08T23:42:00.128Z,97485.25
2024-04-08T23:44:28.278Z,97484.97
2024-04-08T23:46:55.246Z,97485.78
2024-04-08T23:49:22.288Z,97485.50
2024-04-08T23:51:49.782Z,97489.00
2024-04-08T23:54:16.859Z,97475.78
2024-04-08T23:56:43.815Z,97484.69
2024-04-08T23:59:10.849Z,97476.81
